sensor_id;sensor_type;location;lat;lon;timestamp;temperature;humidity
5980;DHT22;3016;50.308;8.258;2023-02-11T00:00:40;0.00;16.60
5980;DHT22;3016;50.308;8.258;2023-02-11T00:03:41;0.10;17.00
5980;DHT22;3016;50.308;8.258;2023-02-11T00:06:42;0.10;17.30
5980;DHT22;3016;50.308;8.258;2023-02-11T00:09:43;0.10;17.70
5980;DHT22;3016;50.308;8.258;2023-02-11T00:12:47;0.10;18.40
5980;DHT22;3016;50.308;8.258;2023-02-11T00:15:48;0.20;19.50
5980;DHT22;3016;50.308;8.258;2023-02-11T00:18:50;0.20;20.00
5980;DHT22;3016;50.308;8.258;2023-02-11T00:21:55;0.20;20.30
5980;DHT22;3016;50.308;8.258;2023-02-11T00:24:56;0.30;21.00
5980;DHT22;3016;50.308;8.258;2023-02-11T00:27:57;0.30;21.20
5980;DHT22;3016;50.308;8.258;2023-02-11T00:30:58;0.30;21.30
5980;DHT22;3016;50.308;8.258;2023-02-11T00:34:01;0.30;21.20
5980;DHT22;3016;50.308;8.258;2023-02-11T00:37:03;0.30;21.40
5980;DHT22;3016;50.308;8.258;2023-02-11T00:40:05;0.30;21.50
5980;DHT22;3016;50.308;8.258;2023-02-11T00:43:06;0.40;21.70
5980;DHT22;3016;50.308;8.258;2023-02-11T00:46:08;0.40;22.20
5980;DHT22;3016;50.308;8.258;2023-02-11T00:49:10;0.40;22.40
5980;DHT22;3016;50.308;8.258;2023-02-11T00:52:11;0.40;22.90
5980;DHT22;3016;50.308;8.258;2023-02-11T00:55:13;0.50;23.30
5980;DHT22;3016;50.308;8.258;2023-02-11T00:58:17;0.50;23.50
5980;DHT22;3016;50.308;8.258;2023-02-11T01:01:19;0.50;23.20
5980;DHT22;3016;50.308;8.258;2023-02-11T01:04:20;0.50;23.20
5980;DHT22;3016;50.308;8.258;2023-02-11T01:07:22;0.50;23.10
5980;DHT22;3016;50.308;8.258;2023-02-11T01:10:23;0.50;23.10
5980;DHT22;3016;50.308;8.258;2023-02-11T01:13:30;0.60;23.60
5980;DHT22;3016;50.308;8.258;2023-02-11T01:16:36;0.60;23.80
5980;DHT22;3016;50.308;8.258;2023-02-11T01:19:37;0.60;23.40
5980;DHT22;3016;50.308;8.258;2023-02-11T01:22:39;0.60;23.30
5980;DHT22;3016;50.308;8.258;2023-02-11T01:25:40;0.60;23.60
5980;DHT22;3016;50.308;8.258;2023-02-11T01:28:41;0.60;23.50
5980;DHT22;3016;50.308;8.258;2023-02-11T01:31:42;0.60;23.60
5980;DHT22;3016;50.308;8.258;2023-02-11T01:35:03;0.60;23.70
5980;DHT22;3016;50.308;8.258;2023-02-11T01:38:20;0.60;23.90
5980;DHT22;3016;50.308;8.258;2023-02-11T01:41:23;0.60;23.50
5980;DHT22;3016;50.308;8.258;2023-02-11T01:44:31;0.60;23.40
5980;DHT22;3016;50.308;8.258;2023-02-11T01:47:37;0.70;23.30
5980;DHT22;3016;50.308;8.258;2023-02-11T01:50:41;0.70;23.70
5980;DHT22;3016;50.308;8.258;2023-02-11T01:53:47;0.70;23.50
5980;DHT22;3016;50.308;8.258;2023-02-11T01:57:13;0.70;23.30
5980;DHT22;3016;50.308;8.258;2023-02-11T02:00:36;0.70;23.30
5980;DHT22;3016;50.308;8.258;2023-02-11T02:03:41;0.70;24.00
5980;DHT22;3016;50.308;8.258;2023-02-11T02:06:52;0.70;23.70
5980;DHT22;3016;50.308;8.258;2023-02-11T02:10:04;0.70;23.40
5980;DHT22;3016;50.308;8.258;2023-02-11T02:13:10;0.70;23.30
5980;DHT22;3016;50.308;8.258;2023-02-11T02:16:16;0.70;23.20
5980;DHT22;3016;50.308;8.258;2023-02-11T02:19:31;0.70;23.30
5980;DHT22;3016;50.308;8.258;2023-02-11T02:26:44;0.70;23.60
5980;DHT22;3016;50.308;8.258;2023-02-11T02:33:51;0.60;23.80
5980;DHT22;3016;50.308;8.258;2023-02-11T02:37:08;0.60;24.40
5980;DHT22;3016;50.308;8.258;2023-02-11T02:40:31;0.60;25.00
5980;DHT22;3016;50.308;8.258;2023-02-11T02:43:59;0.60;25.30
5980;DHT22;3016;50.308;8.258;2023-02-11T02:47:00;0.60;25.90
5980;DHT22;3016;50.308;8.258;2023-02-11T02:50:03;0.70;26.70
5980;DHT22;3016;50.308;8.258;2023-02-11T02:56:32;0.60;26.90
5980;DHT22;3016;50.308;8.258;2023-02-11T03:10:44;0.50;26.60
5980;DHT22;3016;50.308;8.258;2023-02-11T03:13:48;0.40;26.60
5980;DHT22;3016;50.308;8.258;2023-02-11T03:16:51;0.40;27.40
5980;DHT22;3016;50.308;8.258;2023-02-11T03:19:56;0.40;27.70
5980;DHT22;3016;50.308;8.258;2023-02-11T03:23:28;0.40;27.90
5980;DHT22;3016;50.308;8.258;2023-02-11T03:26:53;0.40;28.20
5980;DHT22;3016;50.308;8.258;2023-02-11T03:30:07;0.30;28.30
5980;DHT22;3016;50.308;8.258;2023-02-11T03:33:28;0.30;28.10
5980;DHT22;3016;50.308;8.258;2023-02-11T03:36:56;0.20;27.10
5980;DHT22;3016;50.308;8.258;2023-02-11T03:40:09;0.10;26.40
5980;DHT22;3016;50.308;8.258;2023-02-11T03:43:25;0.00;25.90
5980;DHT22;3016;50.308;8.258;2023-02-11T03:46:34;-0.10;25.50
5980;DHT22;3016;50.308;8.258;2023-02-11T03:49:39;-0.10;25.30
5980;DHT22;3016;50.308;8.258;2023-02-11T03:52:43;-0.20;24.90
5980;DHT22;3016;50.308;8.258;2023-02-11T03:55:46;-0.30;25.00
5980;DHT22;3016;50.308;8.258;2023-02-11T03:58:49;-0.40;25.10
5980;DHT22;3016;50.308;8.258;2023-02-11T04:01:53;-0.40;26.10
5980;DHT22;3016;50.308;8.258;2023-02-11T04:04:55;-0.50;26.60
5980;DHT22;3016;50.308;8.258;2023-02-11T04:07:57;-0.50;27.20
5980;DHT22;3016;50.308;8.258;2023-02-11T04:10:58;-0.60;27.70
5980;DHT22;3016;50.308;8.258;2023-02-11T04:14:02;-0.60;28.60
5980;DHT22;3016;50.308;8.258;2023-02-11T04:17:04;-0.70;29.10
5980;DHT22;3016;50.308;8.258;2023-02-11T04:20:06;-0.70;30.00
5980;DHT22;3016;50.308;8.258;2023-02-11T04:23:07;-0.70;31.30
5980;DHT22;3016;50.308;8.258;2023-02-11T04:26:09;-0.60;33.90
5980;DHT22;3016;50.308;8.258;2023-02-11T04:29:10;-0.50;35.20
5980;DHT22;3016;50.308;8.258;2023-02-11T04:32:12;-0.50;36.40
5980;DHT22;3016;50.308;8.258;2023-02-11T04:35:13;-0.50;38.00
5980;DHT22;3016;50.308;8.258;2023-02-11T04:38:15;-0.40;40.70
5980;DHT22;3016;50.308;8.258;2023-02-11T04:41:16;-0.30;42.40
5980;DHT22;3016;50.308;8.258;2023-02-11T04:44:18;-0.30;42.10
5980;DHT22;3016;50.308;8.258;2023-02-11T04:47:19;-0.30;42.20
5980;DHT22;3016;50.308;8.258;2023-02-11T04:50:20;-0.20;42.20
5980;DHT22;3016;50.308;8.258;2023-02-11T04:53:21;-0.20;42.30
5980;DHT22;3016;50.308;8.258;2023-02-11T04:56:22;-0.20;42.70
5980;DHT22;3016;50.308;8.258;2023-02-11T04:59:23;-0.20;43.10
5980;DHT22;3016;50.308;8.258;2023-02-11T05:02:24;-0.10;44.00
5980;DHT22;3016;50.308;8.258;2023-02-11T05:05:26;-0.10;44.70
5980;DHT22;3016;50.308;8.258;2023-02-11T05:08:29;0.00;44.80
5980;DHT22;3016;50.308;8.258;2023-02-11T05:11:30;0.00;44.20
5980;DHT22;3016;50.308;8.258;2023-02-11T05:14:32;0.00;43.80
5980;DHT22;3016;50.308;8.258;2023-02-11T05:17:33;0.00;43.80
5980;DHT22;3016;50.308;8.258;2023-02-11T05:20:37;-0.10;42.70
5980;DHT22;3016;50.308;8.258;2023-02-11T05:23:38;-0.10;42.30
5980;DHT22;3016;50.308;8.258;2023-02-11T05:26:40;-0.20;40.70
5980;DHT22;3016;50.308;8.258;2023-02-11T05:29:41;-0.20;40.60
5980;DHT22;3016;50.308;8.258;2023-02-11T05:32:42;-0.20;40.90
5980;DHT22;3016;50.308;8.258;2023-02-11T05:35:43;-0.30;41.00
5980;DHT22;3016;50.308;8.258;2023-02-11T05:38:44;-0.30;41.40
5980;DHT22;3016;50.308;8.258;2023-02-11T05:41:45;-0.30;41.40
5980;DHT22;3016;50.308;8.258;2023-02-11T05:44:46;-0.30;41.50
5980;DHT22;3016;50.308;8.258;2023-02-11T05:47:47;-0.30;41.50
5980;DHT22;3016;50.308;8.258;2023-02-11T05:50:53;-0.30;41.50
5980;DHT22;3016;50.308;8.258;2023-02-11T05:53:54;-0.30;41.20
5980;DHT22;3016;50.308;8.258;2023-02-11T05:56:55;-0.30;41.20
5980;DHT22;3016;50.308;8.258;2023-02-11T05:59:58;-0.30;41.40
5980;DHT22;3016;50.308;8.258;2023-02-11T06:03:00;-0.30;41.20
5980;DHT22;3016;50.308;8.258;2023-02-11T06:06:03;-0.30;41.00
5980;DHT22;3016;50.308;8.258;2023-02-11T06:12:15;-0.40;41.00
5980;DHT22;3016;50.308;8.258;2023-02-11T06:15:16;-0.40;41.70
5980;DHT22;3016;50.308;8.258;2023-02-11T06:21:47;-0.50;42.00
5980;DHT22;3016;50.308;8.258;2023-02-11T06:24:48;-0.40;42.30
5980;DHT22;3016;50.308;8.258;2023-02-11T06:27:49;-0.40;43.90
5980;DHT22;3016;50.308;8.258;2023-02-11T06:30:50;-0.30;45.30
5980;DHT22;3016;50.308;8.258;2023-02-11T06:33:54;-0.30;46.00
5980;DHT22;3016;50.308;8.258;2023-02-11T06:37:01;-0.30;46.50
5980;DHT22;3016;50.308;8.258;2023-02-11T06:40:07;-0.20;46.90
5980;DHT22;3016;50.308;8.258;2023-02-11T06:43:09;-0.20;48.20
5980;DHT22;3016;50.308;8.258;2023-02-11T06:49:31;-0.20;48.40
5980;DHT22;3016;50.308;8.258;2023-02-11T06:59:37;-0.10;49.00
5980;DHT22;3016;50.308;8.258;2023-02-11T07:02:38;-0.10;49.30
5980;DHT22;3016;50.308;8.258;2023-02-11T07:05:48;-0.10;49.10
5980;DHT22;3016;50.308;8.258;2023-02-11T07:08:50;-0.10;49.10
5980;DHT22;3016;50.308;8.258;2023-02-11T07:11:51;-0.10;49.10
5980;DHT22;3016;50.308;8.258;2023-02-11T07:18:07;-0.10;48.70
5980;DHT22;3016;50.308;8.258;2023-02-11T07:21:13;-0.10;48.80
5980;DHT22;3016;50.308;8.258;2023-02-11T07:24:23;0.00;48.80
5980;DHT22;3016;50.308;8.258;2023-02-11T07:55:58;0.60;50.00
5980;DHT22;3016;50.308;8.258;2023-02-11T08:02:13;0.80;49.40
5980;DHT22;3016;50.308;8.258;2023-02-11T08:08:28;1.00;49.40
5980;DHT22;3016;50.308;8.258;2023-02-11T08:11:29;1.10;48.30
5980;DHT22;3016;50.308;8.258;2023-02-11T08:14:30;1.20;46.60
5980;DHT22;3016;50.308;8.258;2023-02-11T08:17:35;1.30;45.00
5980;DHT22;3016;50.308;8.258;2023-02-11T08:20:38;1.30;43.40
5980;DHT22;3016;50.308;8.258;2023-02-11T08:23:40;1.40;41.50
5980;DHT22;3016;50.308;8.258;2023-02-11T08:26:49;1.50;40.00
5980;DHT22;3016;50.308;8.258;2023-02-11T08:29:53;1.60;39.30
5980;DHT22;3016;50.308;8.258;2023-02-11T08:32:55;1.80;38.60
5980;DHT22;3016;50.308;8.258;2023-02-11T08:35:56;1.90;36.50
5980;DHT22;3016;50.308;8.258;2023-02-11T08:38:58;2.00;35.50
5980;DHT22;3016;50.308;8.258;2023-02-11T08:42:03;2.10;33.70
5980;DHT22;3016;50.308;8.258;2023-02-11T08:45:14;2.30;31.40
5980;DHT22;3016;50.308;8.258;2023-02-11T08:48:22;2.40;29.20
5980;DHT22;3016;50.308;8.258;2023-02-11T08:51:25;2.60;27.90
5980;DHT22;3016;50.308;8.258;2023-02-11T08:54:27;2.70;26.60
5980;DHT22;3016;50.308;8.258;2023-02-11T08:57:28;2.80;24.60
5980;DHT22;3016;50.308;8.258;2023-02-11T09:00:29;2.90;22.00
5980;DHT22;3016;50.308;8.258;2023-02-11T09:03:30;3.10;19.90
5980;DHT22;3016;50.308;8.258;2023-02-11T09:06:31;3.20;17.10
5980;DHT22;3016;50.308;8.258;2023-02-11T09:09:57;3.30;13.00
5980;DHT22;3016;50.308;8.258;2023-02-11T09:13:01;3.40;9.80
5980;DHT22;3016;50.308;8.258;2023-02-11T09:16:04;3.60;6.80
5980;DHT22;3016;50.308;8.258;2023-02-11T09:19:12;3.70;1.00
5980;DHT22;3016;50.308;8.258;2023-02-11T09:22:18;3.80;1.00
5980;DHT22;3016;50.308;8.258;2023-02-11T09:25:19;3.90;1.00
5980;DHT22;3016;50.308;8.258;2023-02-11T09:28:21;4.00;1.00
5980;DHT22;3016;50.308;8.258;2023-02-11T09:31:24;4.10;1.00
5980;DHT22;3016;50.308;8.258;2023-02-11T09:34:37;4.10;1.00
5980;DHT22;3016;50.308;8.258;2023-02-11T09:37:44;4.20;1.00
5980;DHT22;3016;50.308;8.258;2023-02-11T09:40:45;4.20;1.00
5980;DHT22;3016;50.308;8.258;2023-02-11T09:43:47;4.20;1.00
5980;DHT22;3016;50.308;8.258;2023-02-11T09:47:36;4.30;1.00
5980;DHT22;3016;50.308;8.258;2023-02-11T09:51:00;4.30;1.00
5980;DHT22;3016;50.308;8.258;2023-02-11T09:54:10;4.40;1.00
5980;DHT22;3016;50.308;8.258;2023-02-11T09:57:17;4.50;1.00
5980;DHT22;3016;50.308;8.258;2023-02-11T10:00:26;4.50;1.00
5980;DHT22;3016;50.308;8.258;2023-02-11T10:11:12;4.70;1.00
5980;DHT22;3016;50.308;8.258;2023-02-11T10:24:55;4.80;1.00
5980;DHT22;3016;50.308;8.258;2023-02-11T10:28:01;4.80;1.00
5980;DHT22;3016;50.308;8.258;2023-02-11T10:31:25;4.90;1.00
5980;DHT22;3016;50.308;8.258;2023-02-11T10:34:32;4.90;1.00
5980;DHT22;3016;50.308;8.258;2023-02-11T10:37:33;4.90;1.00
5980;DHT22;3016;50.308;8.258;2023-02-11T10:40:34;4.90;1.00
5980;DHT22;3016;50.308;8.258;2023-02-11T10:43:36;4.90;1.00
5980;DHT22;3016;50.308;8.258;2023-02-11T10:46:37;5.00;1.00
5980;DHT22;3016;50.308;8.258;2023-02-11T10:49:41;5.00;1.00
5980;DHT22;3016;50.308;8.258;2023-02-11T10:52:43;5.00;1.00
5980;DHT22;3016;50.308;8.258;2023-02-11T10:55:53;5.10;1.00
5980;DHT22;3016;50.308;8.258;2023-02-11T10:59:04;5.10;1.00
5980;DHT22;3016;50.308;8.258;2023-02-11T11:02:26;5.20;1.00
5980;DHT22;3016;50.308;8.258;2023-02-11T11:08:54;5.30;1.00
5980;DHT22;3016;50.308;8.258;2023-02-11T11:11:55;5.40;1.00
5980;DHT22;3016;50.308;8.258;2023-02-11T11:15:23;5.40;1.00
5980;DHT22;3016;50.308;8.258;2023-02-11T11:18:25;5.50;1.00
5980;DHT22;3016;50.308;8.258;2023-02-11T11:21:43;5.50;1.00
5980;DHT22;3016;50.308;8.258;2023-02-11T11:24:45;5.50;1.00
5980;DHT22;3016;50.308;8.258;2023-02-11T11:27:50;5.50;1.00
5980;DHT22;3016;50.308;8.258;2023-02-11T11:30:54;5.60;1.00
5980;DHT22;3016;50.308;8.258;2023-02-11T11:33:58;5.60;1.00
5980;DHT22;3016;50.308;8.258;2023-02-11T11:37:12;5.60;1.00
5980;DHT22;3016;50.308;8.258;2023-02-11T11:40:25;5.60;1.00
5980;DHT22;3016;50.308;8.258;2023-02-11T11:43:33;5.60;1.00
5980;DHT22;3016;50.308;8.258;2023-02-11T11:46:40;5.60;1.00
5980;DHT22;3016;50.308;8.258;2023-02-11T11:53:04;5.70;1.00
5980;DHT22;3016;50.308;8.258;2023-02-11T11:56:18;5.70;1.00
5980;DHT22;3016;50.308;8.258;2023-02-11T11:59:21;5.70;1.00
5980;DHT22;3016;50.308;8.258;2023-02-11T12:25:07;5.90;1.00
5980;DHT22;3016;50.308;8.258;2023-02-11T12:46:48;6.00;1.00
5980;DHT22;3016;50.308;8.258;2023-02-11T12:50:03;5.90;1.00
5980;DHT22;3016;50.308;8.258;2023-02-11T12:54:22;5.90;1.00
5980;DHT22;3016;50.308;8.258;2023-02-11T12:57:22;6.00;1.00
5980;DHT22;3016;50.308;8.258;2023-02-11T13:00:37;6.00;1.00
5980;DHT22;3016;50.308;8.258;2023-02-11T13:04:11;6.00;1.00
5980;DHT22;3016;50.308;8.258;2023-02-11T13:07:36;5.90;1.00
5980;DHT22;3016;50.308;8.258;2023-02-11T13:10:49;5.90;1.00
5980;DHT22;3016;50.308;8.258;2023-02-11T13:14:23;5.80;1.00
5980;DHT22;3016;50.308;8.258;2023-02-11T13:24:54;5.80;1.00
5980;DHT22;3016;50.308;8.258;2023-02-11T13:31:40;5.80;1.00
5980;DHT22;3016;50.308;8.258;2023-02-11T13:37:46;5.80;1.00
5980;DHT22;3016;50.308;8.258;2023-02-11T13:41:18;5.80;1.60
5980;DHT22;3016;50.308;8.258;2023-02-11T13:44:27;5.70;2.30
5980;DHT22;3016;50.308;8.258;2023-02-11T13:47:34;5.80;3.10
5980;DHT22;3016;50.308;8.258;2023-02-11T13:50:38;5.80;2.10
5980;DHT22;3016;50.308;8.258;2023-02-11T13:53:57;5.80;2.70
5980;DHT22;3016;50.308;8.258;2023-02-11T14:03:36;5.80;1.70
5980;DHT22;3016;50.308;8.258;2023-02-11T14:07:36;5.80;1.00
5980;DHT22;3016;50.308;8.258;2023-02-11T14:10:55;5.80;2.00
5980;DHT22;3016;50.308;8.258;2023-02-11T14:14:28;5.70;4.70
5980;DHT22;3016;50.308;8.258;2023-02-11T14:17:32;5.60;4.40
5980;DHT22;3016;50.308;8.258;2023-02-11T14:20:39;5.60;4.90
5980;DHT22;3016;50.308;8.258;2023-02-11T14:23:43;5.60;7.00
5980;DHT22;3016;50.308;8.258;2023-02-11T14:37:03;5.50;12.30
5980;DHT22;3016;50.308;8.258;2023-02-11T14:44:19;5.60;12.00
5980;DHT22;3016;50.308;8.258;2023-02-11T14:47:33;5.50;11.90
5980;DHT22;3016;50.308;8.258;2023-02-11T14:50:47;5.60;11.40
5980;DHT22;3016;50.308;8.258;2023-02-11T14:53:52;5.60;12.00
5980;DHT22;3016;50.308;8.258;2023-02-11T14:57:07;5.60;11.10
5980;DHT22;3016;50.308;8.258;2023-02-11T15:00:20;5.60;10.20
5980;DHT22;3016;50.308;8.258;2023-02-11T15:03:32;5.60;10.30
5980;DHT22;3016;50.308;8.258;2023-02-11T15:06:41;5.60;9.20
5980;DHT22;3016;50.308;8.258;2023-02-11T15:09:50;5.60;9.50
5980;DHT22;3016;50.308;8.258;2023-02-11T15:12:52;5.60;8.90
5980;DHT22;3016;50.308;8.258;2023-02-11T15:16:05;5.60;9.50
5980;DHT22;3016;50.308;8.258;2023-02-11T15:22:21;5.50;9.40
5980;DHT22;3016;50.308;8.258;2023-02-11T15:25:24;5.50;11.10
5980;DHT22;3016;50.308;8.258;2023-02-11T15:28:29;5.50;11.60
5980;DHT22;3016;50.308;8.258;2023-02-11T15:31:34;5.50;10.50
5980;DHT22;3016;50.308;8.258;2023-02-11T15:38:04;5.50;10.70
5980;DHT22;3016;50.308;8.258;2023-02-11T15:41:36;5.50;10.20
5980;DHT22;3016;50.308;8.258;2023-02-11T15:44:37;5.50;10.30
5980;DHT22;3016;50.308;8.258;2023-02-11T15:47:46;5.50;11.80
5980;DHT22;3016;50.308;8.258;2023-02-11T15:50:59;5.50;11.40
5980;DHT22;3016;50.308;8.258;2023-02-11T15:54:35;5.50;9.60
5980;DHT22;3016;50.308;8.258;2023-02-11T15:57:43;5.50;10.60
5980;DHT22;3016;50.308;8.258;2023-02-11T16:16:39;5.40;10.20
5980;DHT22;3016;50.308;8.258;2023-02-11T16:19:51;5.30;11.40
5980;DHT22;3016;50.308;8.258;2023-02-11T16:22:53;5.30;13.00
5980;DHT22;3016;50.308;8.258;2023-02-11T16:35:53;5.20;11.70
5980;DHT22;3016;50.308;8.258;2023-02-11T16:38:55;5.20;11.70
5980;DHT22;3016;50.308;8.258;2023-02-11T16:48:24;5.00;10.40
5980;DHT22;3016;50.308;8.258;2023-02-11T16:51:27;4.90;11.50
5980;DHT22;3016;50.308;8.258;2023-02-11T16:57:43;4.90;12.10
5980;DHT22;3016;50.308;8.258;2023-02-11T17:00:45;4.80;12.70
5980;DHT22;3016;50.308;8.258;2023-02-11T17:03:47;4.80;13.80
5980;DHT22;3016;50.308;8.258;2023-02-11T17:06:48;4.80;15.00
5980;DHT22;3016;50.308;8.258;2023-02-11T17:32:02;4.60;19.60
5980;DHT22;3016;50.308;8.258;2023-02-11T17:35:34;4.60;20.40
5980;DHT22;3016;50.308;8.258;2023-02-11T17:38:58;4.60;21.00
5980;DHT22;3016;50.308;8.258;2023-02-11T17:45:12;4.60;22.20
5980;DHT22;3016;50.308;8.258;2023-02-11T17:48:16;4.60;22.20
5980;DHT22;3016;50.308;8.258;2023-02-11T17:51:28;4.60;22.90
5980;DHT22;3016;50.308;8.258;2023-02-11T18:20:23;4.40;23.90
5980;DHT22;3016;50.308;8.258;2023-02-11T18:39:17;4.40;25.10
5980;DHT22;3016;50.308;8.258;2023-02-11T18:42:20;4.40;25.50
5980;DHT22;3016;50.308;8.258;2023-02-11T18:45:30;4.40;25.60
5980;DHT22;3016;50.308;8.258;2023-02-11T18:48:32;4.40;25.60
5980;DHT22;3016;50.308;8.258;2023-02-11T18:51:33;4.40;26.70
5980;DHT22;3016;50.308;8.258;2023-02-11T18:54:34;4.40;27.30
5980;DHT22;3016;50.308;8.258;2023-02-11T18:57:35;4.40;27.30
5980;DHT22;3016;50.308;8.258;2023-02-11T19:00:41;4.30;27.50
5980;DHT22;3016;50.308;8.258;2023-02-11T19:03:46;4.40;28.30
5980;DHT22;3016;50.308;8.258;2023-02-11T19:06:48;4.40;28.70
5980;DHT22;3016;50.308;8.258;2023-02-11T19:09:49;4.30;27.10
5980;DHT22;3016;50.308;8.258;2023-02-11T19:12:56;4.30;27.10
5980;DHT22;3016;50.308;8.258;2023-02-11T19:15:58;4.30;26.10
5980;DHT22;3016;50.308;8.258;2023-02-11T19:18:59;4.30;26.40
5980;DHT22;3016;50.308;8.258;2023-02-11T19:22:01;4.30;26.50
5980;DHT22;3016;50.308;8.258;2023-02-11T19:25:06;4.30;26.80
5980;DHT22;3016;50.308;8.258;2023-02-11T19:28:11;4.30;27.70
5980;DHT22;3016;50.308;8.258;2023-02-11T19:34:44;4.30;28.10
5980;DHT22;3016;50.308;8.258;2023-02-11T19:41:04;4.30;28.00
5980;DHT22;3016;50.308;8.258;2023-02-11T19:44:47;4.30;28.60
5980;DHT22;3016;50.308;8.258;2023-02-11T19:48:13;4.30;29.00
5980;DHT22;3016;50.308;8.258;2023-02-11T19:51:21;4.30;29.60
5980;DHT22;3016;50.308;8.258;2023-02-11T19:54:44;4.30;29.30
5980;DHT22;3016;50.308;8.258;2023-02-11T19:57:45;4.30;29.00
5980;DHT22;3016;50.308;8.258;2023-02-11T20:00:50;4.30;29.00
5980;DHT22;3016;50.308;8.258;2023-02-11T20:03:53;4.30;28.70
5980;DHT22;3016;50.308;8.258;2023-02-11T20:07:08;4.20;27.50
5980;DHT22;3016;50.308;8.258;2023-02-11T20:10:16;4.20;27.90
5980;DHT22;3016;50.308;8.258;2023-02-11T20:13:18;4.20;28.90
5980;DHT22;3016;50.308;8.258;2023-02-11T20:16:20;4.30;29.70
5980;DHT22;3016;50.308;8.258;2023-02-11T20:19:23;4.30;30.60
5980;DHT22;3016;50.308;8.258;2023-02-11T20:22:24;4.30;31.40
5980;DHT22;3016;50.308;8.258;2023-02-11T20:25:25;4.20;31.00
5980;DHT22;3016;50.308;8.258;2023-02-11T20:28:27;4.30;31.50
5980;DHT22;3016;50.308;8.258;2023-02-11T20:31:29;4.20;29.70
5980;DHT22;3016;50.308;8.258;2023-02-11T20:34:31;4.20;29.80
5980;DHT22;3016;50.308;8.258;2023-02-11T20:37:34;4.20;30.50
5980;DHT22;3016;50.308;8.258;2023-02-11T20:40:35;4.20;30.70
5980;DHT22;3016;50.308;8.258;2023-02-11T20:43:35;4.20;30.90
5980;DHT22;3016;50.308;8.258;2023-02-11T20:46:40;4.20;31.40
5980;DHT22;3016;50.308;8.258;2023-02-11T20:49:42;4.30;32.30
5980;DHT22;3016;50.308;8.258;2023-02-11T20:52:43;4.30;31.60
5980;DHT22;3016;50.308;8.258;2023-02-11T20:55:43;4.30;30.50
5980;DHT22;3016;50.308;8.258;2023-02-11T20:58:45;4.20;29.90
5980;DHT22;3016;50.308;8.258;2023-02-11T21:01:48;4.20;29.80
5980;DHT22;3016;50.308;8.258;2023-02-11T21:04:52;4.20;29.70
5980;DHT22;3016;50.308;8.258;2023-02-11T21:07:53;4.20;30.00
5980;DHT22;3016;50.308;8.258;2023-02-11T21:10:57;4.30;31.10
5980;DHT22;3016;50.308;8.258;2023-02-11T21:13:59;4.30;32.40
5980;DHT22;3016;50.308;8.258;2023-02-11T21:17:01;4.30;33.00
5980;DHT22;3016;50.308;8.258;2023-02-11T21:20:06;4.30;32.40
5980;DHT22;3016;50.308;8.258;2023-02-11T21:23:08;4.20;31.70
5980;DHT22;3016;50.308;8.258;2023-02-11T21:26:13;4.20;31.40
5980;DHT22;3016;50.308;8.258;2023-02-11T21:29:14;4.20;32.00
5980;DHT22;3016;50.308;8.258;2023-02-11T21:32:15;4.20;32.80
5980;DHT22;3016;50.308;8.258;2023-02-11T21:35:17;4.20;33.70
5980;DHT22;3016;50.308;8.258;2023-02-11T21:38:17;4.20;34.40
5980;DHT22;3016;50.308;8.258;2023-02-11T21:41:20;4.20;34.50
5980;DHT22;3016;50.308;8.258;2023-02-11T21:44:21;4.20;34.20
5980;DHT22;3016;50.308;8.258;2023-02-11T21:47:30;4.20;34.10
5980;DHT22;3016;50.308;8.258;2023-02-11T21:50:31;4.10;33.50
5980;DHT22;3016;50.308;8.258;2023-02-11T21:53:40;4.20;35.20
5980;DHT22;3016;50.308;8.258;2023-02-11T21:56:41;4.20;36.60
5980;DHT22;3016;50.308;8.258;2023-02-11T21:59:42;4.20;37.20
5980;DHT22;3016;50.308;8.258;2023-02-11T22:02:43;4.20;38.00
5980;DHT22;3016;50.308;8.258;2023-02-11T22:05:44;4.20;38.00
5980;DHT22;3016;50.308;8.258;2023-02-11T22:08:45;4.20;37.80
5980;DHT22;3016;50.308;8.258;2023-02-11T22:12:02;4.20;37.50
5980;DHT22;3016;50.308;8.258;2023-02-11T22:15:04;4.20;37.20
5980;DHT22;3016;50.308;8.258;2023-02-11T22:18:05;4.20;36.50
5980;DHT22;3016;50.308;8.258;2023-02-11T22:21:12;4.20;35.70
5980;DHT22;3016;50.308;8.258;2023-02-11T22:24:17;4.20;35.30
5980;DHT22;3016;50.308;8.258;2023-02-11T22:27:17;4.10;35.20
5980;DHT22;3016;50.308;8.258;2023-02-11T22:30:21;4.20;35.90
5980;DHT22;3016;50.308;8.258;2023-02-11T22:33:24;4.20;36.40
5980;DHT22;3016;50.308;8.258;2023-02-11T22:36:28;4.20;36.40
5980;DHT22;3016;50.308;8.258;2023-02-11T22:39:31;4.20;36.30
5980;DHT22;3016;50.308;8.258;2023-02-11T22:42:36;4.20;36.60
5980;DHT22;3016;50.308;8.258;2023-02-11T22:45:37;4.20;36.10
5980;DHT22;3016;50.308;8.258;2023-02-11T22:48:42;4.20;34.70
5980;DHT22;3016;50.308;8.258;2023-02-11T22:55:42;4.20;35.60
5980;DHT22;3016;50.308;8.258;2023-02-11T22:58:50;4.20;35.10
5980;DHT22;3016;50.308;8.258;2023-02-11T23:02:05;4.20;34.30
5980;DHT22;3016;50.308;8.258;2023-02-11T23:05:06;4.20;33.30
5980;DHT22;3016;50.308;8.258;2023-02-11T23:08:10;4.10;32.80
5980;DHT22;3016;50.308;8.258;2023-02-11T23:11:18;4.10;32.80
5980;DHT22;3016;50.308;8.258;2023-02-11T23:14:29;4.10;33.40
5980;DHT22;3016;50.308;8.258;2023-02-11T23:17:54;4.10;33.90
5980;DHT22;3016;50.308;8.258;2023-02-11T23:20:55;4.10;34.20
5980;DHT22;3016;50.308;8.258;2023-02-11T23:24:07;4.10;33.90
5980;DHT22;3016;50.308;8.258;2023-02-11T23:27:13;4.10;34.50
5980;DHT22;3016;50.308;8.258;2023-02-11T23:30:14;4.10;35.60
5980;DHT22;3016;50.308;8.258;2023-02-11T23:33:16;4.10;36.30
5980;DHT22;3016;50.308;8.258;2023-02-11T23:36:38;4.10;36.70
5980;DHT22;3016;50.308;8.258;2023-02-11T23:39:46;4.10;36.70
5980;DHT22;3016;50.308;8.258;2023-02-11T23:42:46;4.10;37.20
5980;DHT22;3016;50.308;8.258;2023-02-11T23:45:48;4.10;38.40
5980;DHT22;3016;50.308;8.258;2023-02-11T23:48:51;4.10;37.20
5980;DHT22;3016;50.308;8.258;2023-02-11T23:51:52;4.10;37.20
5980;DHT22;3016;50.308;8.258;2023-02-11T23:54:53;4.10;37.10
5980;DHT22;3016;50.308;8.258;2023-02-11T23:57:54;4.10;36.90
